sensor_id;sensor_type;location;lat;lon;timestamp;P1;durP1;ratioP1;P2;durP2;ratioP2
56670;SDS011;42545;50.054;8.306;2023-06-24T00:02:14;0.80;;;0.80;;
56670;SDS011;42545;50.054;8.306;2023-06-24T00:04:41;1.23;;;1.05;;
56670;SDS011;42545;50.054;8.306;2023-06-24T00:07:09;1.17;;;1.08;;
56670;SDS011;42545;50.054;8.306;2023-06-24T00:09:35;1.20;;;1.10;;
56670;SDS011;42545;50.054;8.306;2023-06-24T00:12:04;1.30;;;1.20;;
56670;SDS011;42545;50.054;8.306;2023-06-24T00:14:31;1.10;;;1.00;;
56670;SDS011;42545;50.054;8.306;2023-06-24T00:16:58;0.90;;;0.90;;
56670;SDS011;42545;50.054;8.306;2023-06-24T00:19:25;2.20;;;1.98;;
56670;SDS011;42545;50.054;8.306;2023-06-24T00:21:52;1.50;;;1.40;;
56670;SDS011;42545;50.054;8.306;2023-06-24T00:24:21;3.03;;;2.55;;
56670;SDS011;42545;50.054;8.306;2023-06-24T00:26:50;2.97;;;2.70;;
56670;SDS011;42545;50.054;8.306;2023-06-24T00:29:19;3.72;;;2.90;;
56670;SDS011;42545;50.054;8.306;2023-06-24T00:31:45;3.20;;;2.45;;
56670;SDS011;42545;50.054;8.306;2023-06-24T00:34:12;3.28;;;2.80;;
56670;SDS011;42545;50.054;8.306;2023-06-24T00:36:38;3.55;;;3.25;;
56670;SDS011;42545;50.054;8.306;2023-06-24T00:39:05;4.45;;;4.05;;
56670;SDS011;42545;50.054;8.306;2023-06-24T00:41:34;3.83;;;3.33;;
56670;SDS011;42545;50.054;8.306;2023-06-24T00:44:02;3.33;;;2.92;;
56670;SDS011;42545;50.054;8.306;2023-06-24T00:46:30;3.47;;;2.67;;
56670;SDS011;42545;50.054;8.306;2023-06-24T00:48:58;2.90;;;2.60;;
56670;SDS011;42545;50.054;8.306;2023-06-24T00:51:25;2.78;;;2.50;;
56670;SDS011;42545;50.054;8.306;2023-06-24T00:53:55;3.58;;;2.50;;
56670;SDS011;42545;50.054;8.306;2023-06-24T00:56:22;3.20;;;2.50;;
56670;SDS011;42545;50.054;8.306;2023-06-24T00:58:54;2.47;;;2.28;;
56670;SDS011;42545;50.054;8.306;2023-06-24T01:01:21;3.25;;;2.55;;
56670;SDS011;42545;50.054;8.306;2023-06-24T01:03:50;2.90;;;2.60;;
56670;SDS011;42545;50.054;8.306;2023-06-24T01:06:17;2.75;;;2.53;;
56670;SDS011;42545;50.054;8.306;2023-06-24T01:08:43;3.78;;;2.83;;
56670;SDS011;42545;50.054;8.306;2023-06-24T01:11:15;2.60;;;2.38;;
56670;SDS011;42545;50.054;8.306;2023-06-24T01:13:42;2.30;;;2.10;;
56670;SDS011;42545;50.054;8.306;2023-06-24T01:16:10;2.33;;;2.13;;
56670;SDS011;42545;50.054;8.306;2023-06-24T01:18:44;2.50;;;2.30;;
56670;SDS011;42545;50.054;8.306;2023-06-24T01:21:17;3.70;;;2.40;;
56670;SDS011;42545;50.054;8.306;2023-06-24T01:23:56;2.10;;;1.90;;
56670;SDS011;42545;50.054;8.306;2023-06-24T01:26:52;2.30;;;2.10;;
56670;SDS011;42545;50.054;8.306;2023-06-24T01:29:42;2.37;;;2.17;;
56670;SDS011;42545;50.054;8.306;2023-06-24T01:32:22;2.50;;;2.30;;
56670;SDS011;42545;50.054;8.306;2023-06-24T01:34:55;2.10;;;1.90;;
56670;SDS011;42545;50.054;8.306;2023-06-24T01:37:25;2.20;;;2.00;;
56670;SDS011;42545;50.054;8.306;2023-06-24T01:39:56;2.33;;;2.00;;
56670;SDS011;42545;50.054;8.306;2023-06-24T01:42:38;2.15;;;1.90;;
56670;SDS011;42545;50.054;8.306;2023-06-24T01:45:09;2.20;;;2.00;;
56670;SDS011;42545;50.054;8.306;2023-06-24T01:47:42;1.98;;;1.73;;
56670;SDS011;42545;50.054;8.306;2023-06-24T01:50:14;1.85;;;1.70;;
56670;SDS011;42545;50.054;8.306;2023-06-24T01:52:46;1.60;;;1.50;;
56670;SDS011;42545;50.054;8.306;2023-06-24T01:55:16;1.42;;;1.33;;
56670;SDS011;42545;50.054;8.306;2023-06-24T01:57:45;1.70;;;1.60;;
56670;SDS011;42545;50.054;8.306;2023-06-24T02:00:14;1.40;;;1.30;;
56670;SDS011;42545;50.054;8.306;2023-06-24T02:02:44;1.58;;;1.30;;
56670;SDS011;42545;50.054;8.306;2023-06-24T02:05:12;1.38;;;1.27;;
56670;SDS011;42545;50.054;8.306;2023-06-24T02:07:41;1.40;;;1.30;;
56670;SDS011;42545;50.054;8.306;2023-06-24T02:10:09;1.35;;;1.25;;
56670;SDS011;42545;50.054;8.306;2023-06-24T02:12:37;1.30;;;1.20;;
56670;SDS011;42545;50.054;8.306;2023-06-24T02:15:05;1.40;;;1.30;;
56670;SDS011;42545;50.054;8.306;2023-06-24T02:17:34;1.20;;;1.10;;
56670;SDS011;42545;50.054;8.306;2023-06-24T02:20:03;1.15;;;1.05;;
56670;SDS011;42545;50.054;8.306;2023-06-24T02:22:31;1.30;;;1.20;;
56670;SDS011;42545;50.054;8.306;2023-06-24T02:24:58;1.15;;;1.05;;
56670;SDS011;42545;50.054;8.306;2023-06-24T02:27:25;1.35;;;1.25;;
56670;SDS011;42545;50.054;8.306;2023-06-24T02:29:52;1.20;;;1.10;;
56670;SDS011;42545;50.054;8.306;2023-06-24T02:32:20;1.30;;;1.20;;
56670;SDS011;42545;50.054;8.306;2023-06-24T02:34:46;1.30;;;1.20;;
56670;SDS011;42545;50.054;8.306;2023-06-24T02:37:14;1.17;;;1.08;;
56670;SDS011;42545;50.054;8.306;2023-06-24T02:39:41;1.35;;;1.25;;
56670;SDS011;42545;50.054;8.306;2023-06-24T02:42:09;1.20;;;1.10;;
56670;SDS011;42545;50.054;8.306;2023-06-24T02:44:36;1.17;;;1.08;;
56670;SDS011;42545;50.054;8.306;2023-06-24T02:47:03;1.30;;;1.20;;
56670;SDS011;42545;50.054;8.306;2023-06-24T02:49:31;1.30;;;1.20;;
56670;SDS011;42545;50.054;8.306;2023-06-24T02:51:58;1.10;;;1.00;;
56670;SDS011;42545;50.054;8.306;2023-06-24T02:54:26;1.10;;;1.00;;
56670;SDS011;42545;50.054;8.306;2023-06-24T02:56:53;1.10;;;1.00;;
56670;SDS011;42545;50.054;8.306;2023-06-24T02:59:22;1.10;;;1.00;;
56670;SDS011;42545;50.054;8.306;2023-06-24T03:01:49;1.10;;;1.00;;
56670;SDS011;42545;50.054;8.306;2023-06-24T03:04:16;1.25;;;1.10;;
56670;SDS011;42545;50.054;8.306;2023-06-24T03:06:44;0.90;;;0.90;;
56670;SDS011;42545;50.054;8.306;2023-06-24T03:09:11;1.13;;;0.98;;
56670;SDS011;42545;50.054;8.306;2023-06-24T03:11:42;1.10;;;1.00;;
56670;SDS011;42545;50.054;8.306;2023-06-24T03:14:09;1.08;;;0.98;;
56670;SDS011;42545;50.054;8.306;2023-06-24T03:16:36;0.93;;;0.93;;
56670;SDS011;42545;50.054;8.306;2023-06-24T03:19:04;0.85;;;0.85;;
56670;SDS011;42545;50.054;8.306;2023-06-24T03:21:31;0.88;;;0.88;;
56670;SDS011;42545;50.054;8.306;2023-06-24T03:23:58;0.80;;;0.80;;
56670;SDS011;42545;50.054;8.306;2023-06-24T03:26:25;0.70;;;0.70;;
56670;SDS011;42545;50.054;8.306;2023-06-24T03:28:58;0.80;;;0.80;;
56670;SDS011;42545;50.054;8.306;2023-06-24T03:31:26;0.80;;;0.80;;
56670;SDS011;42545;50.054;8.306;2023-06-24T03:33:52;0.90;;;0.88;;
56670;SDS011;42545;50.054;8.306;2023-06-24T03:36:19;0.70;;;0.70;;
56670;SDS011;42545;50.054;8.306;2023-06-24T03:38:46;0.80;;;0.80;;
56670;SDS011;42545;50.054;8.306;2023-06-24T03:41:13;0.70;;;0.70;;
56670;SDS011;42545;50.054;8.306;2023-06-24T03:43:40;1.10;;;1.00;;
56670;SDS011;42545;50.054;8.306;2023-06-24T03:46:10;1.15;;;1.05;;
56670;SDS011;42545;50.054;8.306;2023-06-24T03:48:36;1.00;;;0.90;;
56670;SDS011;42545;50.054;8.306;2023-06-24T03:51:03;0.95;;;0.90;;
56670;SDS011;42545;50.054;8.306;2023-06-24T03:53:30;1.13;;;1.00;;
56670;SDS011;42545;50.054;8.306;2023-06-24T03:55:56;0.90;;;0.90;;
56670;SDS011;42545;50.054;8.306;2023-06-24T03:58:23;1.10;;;1.00;;
56670;SDS011;42545;50.054;8.306;2023-06-24T04:00:49;0.70;;;0.70;;
56670;SDS011;42545;50.054;8.306;2023-06-24T04:03:18;1.00;;;0.90;;
56670;SDS011;42545;50.054;8.306;2023-06-24T04:05:44;0.95;;;0.90;;
56670;SDS011;42545;50.054;8.306;2023-06-24T04:08:11;0.85;;;0.85;;
56670;SDS011;42545;50.054;8.306;2023-06-24T04:10:37;1.30;;;1.20;;
56670;SDS011;42545;50.054;8.306;2023-06-24T04:13:04;0.80;;;0.80;;
56670;SDS011;42545;50.054;8.306;2023-06-24T04:15:30;0.80;;;0.80;;
56670;SDS011;42545;50.054;8.306;2023-06-24T04:17:57;1.23;;;1.13;;
56670;SDS011;42545;50.054;8.306;2023-06-24T04:20:25;1.05;;;0.95;;
56670;SDS011;42545;50.054;8.306;2023-06-24T04:22:52;0.85;;;0.80;;
56670;SDS011;42545;50.054;8.306;2023-06-24T04:25:18;1.08;;;0.98;;
56670;SDS011;42545;50.054;8.306;2023-06-24T04:27:45;0.85;;;0.85;;
56670;SDS011;42545;50.054;8.306;2023-06-24T04:30:12;0.80;;;0.80;;
56670;SDS011;42545;50.054;8.306;2023-06-24T04:32:39;0.70;;;0.70;;
56670;SDS011;42545;50.054;8.306;2023-06-24T04:35:05;0.65;;;0.65;;
56670;SDS011;42545;50.054;8.306;2023-06-24T04:37:34;0.80;;;0.80;;
56670;SDS011;42545;50.054;8.306;2023-06-24T04:40:01;0.70;;;0.70;;
56670;SDS011;42545;50.054;8.306;2023-06-24T04:42:28;0.70;;;0.60;;
56670;SDS011;42545;50.054;8.306;2023-06-24T04:44:55;0.70;;;0.70;;
56670;SDS011;42545;50.054;8.306;2023-06-24T04:47:21;0.70;;;0.70;;
56670;SDS011;42545;50.054;8.306;2023-06-24T04:49:48;0.70;;;0.70;;
56670;SDS011;42545;50.054;8.306;2023-06-24T04:52:15;0.60;;;0.60;;
56670;SDS011;42545;50.054;8.306;2023-06-24T04:54:43;0.70;;;0.70;;
56670;SDS011;42545;50.054;8.306;2023-06-24T04:57:14;0.70;;;0.70;;
56670;SDS011;42545;50.054;8.306;2023-06-24T04:59:49;0.60;;;0.60;;
56670;SDS011;42545;50.054;8.306;2023-06-24T05:02:16;0.65;;;0.65;;
56670;SDS011;42545;50.054;8.306;2023-06-24T05:04:42;0.52;;;0.52;;
56670;SDS011;42545;50.054;8.306;2023-06-24T05:07:09;0.60;;;0.60;;
56670;SDS011;42545;50.054;8.306;2023-06-24T05:09:35;0.55;;;0.55;;
56670;SDS011;42545;50.054;8.306;2023-06-24T05:12:04;0.60;;;0.60;;
56670;SDS011;42545;50.054;8.306;2023-06-24T05:14:33;0.70;;;0.70;;
56670;SDS011;42545;50.054;8.306;2023-06-24T05:17:01;0.60;;;0.60;;
56670;SDS011;42545;50.054;8.306;2023-06-24T05:19:28;0.70;;;0.70;;
56670;SDS011;42545;50.054;8.306;2023-06-24T05:21:55;0.80;;;0.80;;
56670;SDS011;42545;50.054;8.306;2023-06-24T05:24:21;0.75;;;0.70;;
56670;SDS011;42545;50.054;8.306;2023-06-24T05:26:48;1.25;;;1.10;;
56670;SDS011;42545;50.054;8.306;2023-06-24T05:29:17;1.00;;;0.90;;
56670;SDS011;42545;50.054;8.306;2023-06-24T05:31:47;0.90;;;0.90;;
56670;SDS011;42545;50.054;8.306;2023-06-24T05:34:14;1.27;;;1.17;;
56670;SDS011;42545;50.054;8.306;2023-06-24T05:36:40;1.23;;;1.13;;
56670;SDS011;42545;50.054;8.306;2023-06-24T05:39:07;1.33;;;1.23;;
56670;SDS011;42545;50.054;8.306;2023-06-24T05:41:34;2.40;;;2.00;;
56670;SDS011;42545;50.054;8.306;2023-06-24T05:44:01;2.80;;;2.28;;
56670;SDS011;42545;50.054;8.306;2023-06-24T05:46:31;2.70;;;2.30;;
56670;SDS011;42545;50.054;8.306;2023-06-24T05:48:57;2.35;;;1.98;;
56670;SDS011;42545;50.054;8.306;2023-06-24T05:51:24;2.30;;;2.10;;
56670;SDS011;42545;50.054;8.306;2023-06-24T05:53:51;3.38;;;3.03;;
56670;SDS011;42545;50.054;8.306;2023-06-24T05:56:17;3.67;;;3.38;;
56670;SDS011;42545;50.054;8.306;2023-06-24T05:58:46;5.00;;;4.28;;
56670;SDS011;42545;50.054;8.306;2023-06-24T06:01:13;4.60;;;3.47;;
56670;SDS011;42545;50.054;8.306;2023-06-24T06:03:42;2.92;;;2.47;;
56670;SDS011;42545;50.054;8.306;2023-06-24T06:06:09;2.97;;;2.50;;
56670;SDS011;42545;50.054;8.306;2023-06-24T06:08:35;3.65;;;2.88;;
56670;SDS011;42545;50.054;8.306;2023-06-24T06:11:02;4.07;;;3.65;;
56670;SDS011;42545;50.054;8.306;2023-06-24T06:13:29;3.10;;;2.80;;
56670;SDS011;42545;50.054;8.306;2023-06-24T06:15:55;3.53;;;3.13;;
56670;SDS011;42545;50.054;8.306;2023-06-24T06:18:22;3.92;;;3.30;;
56670;SDS011;42545;50.054;8.306;2023-06-24T06:20:50;4.95;;;4.22;;
56670;SDS011;42545;50.054;8.306;2023-06-24T06:23:19;5.60;;;5.05;;
56670;SDS011;42545;50.054;8.306;2023-06-24T06:25:48;4.50;;;3.78;;
56670;SDS011;42545;50.054;8.306;2023-06-24T06:28:14;5.35;;;3.83;;
56670;SDS011;42545;50.054;8.306;2023-06-24T06:30:41;3.90;;;3.55;;
56670;SDS011;42545;50.054;8.306;2023-06-24T06:33:08;3.28;;;2.97;;
56670;SDS011;42545;50.054;8.306;2023-06-24T06:35:34;3.67;;;2.90;;
56670;SDS011;42545;50.054;8.306;2023-06-24T06:38:04;4.43;;;3.35;;
56670;SDS011;42545;50.054;8.306;2023-06-24T06:40:31;6.05;;;4.55;;
56670;SDS011;42545;50.054;8.306;2023-06-24T06:42:57;5.57;;;4.28;;
56670;SDS011;42545;50.054;8.306;2023-06-24T06:45:24;3.92;;;3.42;;
56670;SDS011;42545;50.054;8.306;2023-06-24T06:47:50;4.10;;;3.70;;
56670;SDS011;42545;50.054;8.306;2023-06-24T06:50:18;4.20;;;3.58;;
56670;SDS011;42545;50.054;8.306;2023-06-24T06:52:45;3.90;;;3.30;;
56670;SDS011;42545;50.054;8.306;2023-06-24T06:55:14;4.20;;;3.63;;
56670;SDS011;42545;50.054;8.306;2023-06-24T06:57:40;3.35;;;3.00;;
56670;SDS011;42545;50.054;8.306;2023-06-24T07:00:08;4.18;;;3.20;;
56670;SDS011;42545;50.054;8.306;2023-06-24T07:02:36;3.10;;;2.80;;
56670;SDS011;42545;50.054;8.306;2023-06-24T07:05:03;4.10;;;3.15;;
56670;SDS011;42545;50.054;8.306;2023-06-24T07:07:29;3.53;;;3.20;;
56670;SDS011;42545;50.054;8.306;2023-06-24T07:09:57;2.70;;;2.42;;
56670;SDS011;42545;50.054;8.306;2023-06-24T07:12:25;2.80;;;2.60;;
56670;SDS011;42545;50.054;8.306;2023-06-24T07:14:52;3.35;;;3.03;;
56670;SDS011;42545;50.054;8.306;2023-06-24T07:17:18;3.83;;;3.42;;
56670;SDS011;42545;50.054;8.306;2023-06-24T07:19:45;3.35;;;2.60;;
56670;SDS011;42545;50.054;8.306;2023-06-24T07:22:11;4.00;;;2.97;;
56670;SDS011;42545;50.054;8.306;2023-06-24T07:24:38;3.67;;;2.95;;
56670;SDS011;42545;50.054;8.306;2023-06-24T07:27:04;3.08;;;2.75;;
56670;SDS011;42545;50.054;8.306;2023-06-24T07:29:33;3.85;;;3.20;;
56670;SDS011;42545;50.054;8.306;2023-06-24T07:32:00;3.75;;;3.28;;
56670;SDS011;42545;50.054;8.306;2023-06-24T07:34:27;2.80;;;2.50;;
56670;SDS011;42545;50.054;8.306;2023-06-24T07:36:55;4.35;;;3.13;;
56670;SDS011;42545;50.054;8.306;2023-06-24T07:39:22;3.05;;;2.75;;
56670;SDS011;42545;50.054;8.306;2023-06-24T07:41:48;3.33;;;2.40;;
56670;SDS011;42545;50.054;8.306;2023-06-24T07:44:15;4.05;;;3.45;;
56670;SDS011;42545;50.054;8.306;2023-06-24T07:46:43;2.90;;;2.35;;
56670;SDS011;42545;50.054;8.306;2023-06-24T07:49:10;3.85;;;3.40;;
56670;SDS011;42545;50.054;8.306;2023-06-24T07:51:36;4.82;;;4.22;;
56670;SDS011;42545;50.054;8.306;2023-06-24T07:54:03;4.07;;;3.30;;
56670;SDS011;42545;50.054;8.306;2023-06-24T07:56:30;2.80;;;2.30;;
56670;SDS011;42545;50.054;8.306;2023-06-24T07:58:56;2.70;;;2.50;;
56670;SDS011;42545;50.054;8.306;2023-06-24T08:01:23;2.60;;;2.40;;
56670;SDS011;42545;50.054;8.306;2023-06-24T08:03:51;2.97;;;2.67;;
56670;SDS011;42545;50.054;8.306;2023-06-24T08:06:18;4.60;;;3.22;;
56670;SDS011;42545;50.054;8.306;2023-06-24T08:08:44;4.85;;;4.13;;
56670;SDS011;42545;50.054;8.306;2023-06-24T08:11:12;6.50;;;3.72;;
56670;SDS011;42545;50.054;8.306;2023-06-24T08:13:39;3.28;;;2.90;;
56670;SDS011;42545;50.054;8.306;2023-06-24T08:16:06;3.35;;;2.97;;
56670;SDS011;42545;50.054;8.306;2023-06-24T08:18:32;3.95;;;2.97;;
56670;SDS011;42545;50.054;8.306;2023-06-24T08:21:00;3.22;;;2.63;;
56670;SDS011;42545;50.054;8.306;2023-06-24T08:23:27;4.53;;;4.00;;
56670;SDS011;42545;50.054;8.306;2023-06-24T08:25:53;3.92;;;3.38;;
56670;SDS011;42545;50.054;8.306;2023-06-24T08:31:25;3.25;;;2.60;;
56670;SDS011;42545;50.054;8.306;2023-06-24T08:34:28;2.47;;;2.28;;
56670;SDS011;42545;50.054;8.306;2023-06-24T08:36:56;3.00;;;2.50;;
56670;SDS011;42545;50.054;8.306;2023-06-24T08:39:22;3.13;;;2.35;;
56670;SDS011;42545;50.054;8.306;2023-06-24T08:41:49;2.40;;;2.20;;
56670;SDS011;42545;50.054;8.306;2023-06-24T08:44:16;2.45;;;2.25;;
56670;SDS011;42545;50.054;8.306;2023-06-24T08:46:42;2.35;;;2.05;;
56670;SDS011;42545;50.054;8.306;2023-06-24T08:49:11;2.70;;;1.98;;
56670;SDS011;42545;50.054;8.306;2023-06-24T08:54:18;4.18;;;3.05;;
56670;SDS011;42545;50.054;8.306;2023-06-24T08:56:45;3.13;;;2.83;;
56670;SDS011;42545;50.054;8.306;2023-06-24T08:59:12;4.15;;;3.03;;
56670;SDS011;42545;50.054;8.306;2023-06-24T09:01:44;2.70;;;2.47;;
56670;SDS011;42545;50.054;8.306;2023-06-24T09:04:11;2.35;;;2.15;;
56670;SDS011;42545;50.054;8.306;2023-06-24T09:06:37;2.30;;;2.10;;
56670;SDS011;42545;50.054;8.306;2023-06-24T09:09:04;2.40;;;2.20;;
56670;SDS011;42545;50.054;8.306;2023-06-24T09:11:32;3.28;;;2.97;;
56670;SDS011;42545;50.054;8.306;2023-06-24T09:13:59;2.58;;;2.03;;
56670;SDS011;42545;50.054;8.306;2023-06-24T09:16:26;2.08;;;1.88;;
56670;SDS011;42545;50.054;8.306;2023-06-24T09:18:55;2.42;;;2.22;;
56670;SDS011;42545;50.054;8.306;2023-06-24T09:21:22;2.85;;;2.28;;
56670;SDS011;42545;50.054;8.306;2023-06-24T09:23:51;3.75;;;3.22;;
56670;SDS011;42545;50.054;8.306;2023-06-24T09:26:19;3.38;;;2.67;;
56670;SDS011;42545;50.054;8.306;2023-06-24T09:28:48;2.50;;;2.30;;
56670;SDS011;42545;50.054;8.306;2023-06-24T09:31:16;2.35;;;2.15;;
56670;SDS011;42545;50.054;8.306;2023-06-24T09:33:44;3.83;;;2.40;;
56670;SDS011;42545;50.054;8.306;2023-06-24T09:36:12;3.72;;;2.53;;
56670;SDS011;42545;50.054;8.306;2023-06-24T09:38:40;3.20;;;2.90;;
56670;SDS011;42545;50.054;8.306;2023-06-24T09:41:09;5.18;;;3.17;;
56670;SDS011;42545;50.054;8.306;2023-06-24T09:43:36;3.75;;;2.88;;
56670;SDS011;42545;50.054;8.306;2023-06-24T09:46:06;3.10;;;2.80;;
56670;SDS011;42545;50.054;8.306;2023-06-24T09:48:33;4.05;;;2.85;;
56670;SDS011;42545;50.054;8.306;2023-06-24T09:51:00;2.30;;;2.10;;
56670;SDS011;42545;50.054;8.306;2023-06-24T09:53:28;3.65;;;3.22;;
56670;SDS011;42545;50.054;8.306;2023-06-24T09:55:56;3.17;;;2.73;;
56670;SDS011;42545;50.054;8.306;2023-06-24T09:58:25;3.75;;;3.00;;
56670;SDS011;42545;50.054;8.306;2023-06-24T10:00:53;2.70;;;2.35;;
56670;SDS011;42545;50.054;8.306;2023-06-24T10:03:23;2.50;;;2.30;;
56670;SDS011;42545;50.054;8.306;2023-06-24T10:05:50;2.78;;;2.35;;
56670;SDS011;42545;50.054;8.306;2023-06-24T10:08:17;2.70;;;2.50;;
56670;SDS011;42545;50.054;8.306;2023-06-24T10:10:45;3.45;;;3.10;;
56670;SDS011;42545;50.054;8.306;2023-06-24T10:13:12;5.47;;;3.35;;
56670;SDS011;42545;50.054;8.306;2023-06-24T10:15:38;6.25;;;4.47;;
56670;SDS011;42545;50.054;8.306;2023-06-24T10:21:01;3.47;;;3.17;;
56670;SDS011;42545;50.054;8.306;2023-06-24T10:23:36;4.72;;;3.75;;
56670;SDS011;42545;50.054;8.306;2023-06-24T10:26:07;3.92;;;3.20;;
56670;SDS011;42545;50.054;8.306;2023-06-24T10:31:51;4.15;;;3.65;;
56670;SDS011;42545;50.054;8.306;2023-06-24T10:34:24;4.18;;;3.28;;
56670;SDS011;42545;50.054;8.306;2023-06-24T10:36:54;3.97;;;3.30;;
56670;SDS011;42545;50.054;8.306;2023-06-24T10:39:37;3.30;;;3.00;;
56670;SDS011;42545;50.054;8.306;2023-06-24T10:44:56;3.10;;;2.58;;
56670;SDS011;42545;50.054;8.306;2023-06-24T10:47:24;2.80;;;2.55;;
56670;SDS011;42545;50.054;8.306;2023-06-24T10:49:53;2.80;;;2.50;;
56670;SDS011;42545;50.054;8.306;2023-06-24T10:52:20;2.60;;;2.40;;
56670;SDS011;42545;50.054;8.306;2023-06-24T10:54:48;3.00;;;2.70;;
56670;SDS011;42545;50.054;8.306;2023-06-24T10:57:20;3.40;;;2.55;;
56670;SDS011;42545;50.054;8.306;2023-06-24T10:59:48;3.50;;;2.75;;
56670;SDS011;42545;50.054;8.306;2023-06-24T11:02:15;4.00;;;2.80;;
56670;SDS011;42545;50.054;8.306;2023-06-24T11:04:43;2.50;;;2.20;;
56670;SDS011;42545;50.054;8.306;2023-06-24T11:07:12;2.50;;;2.15;;
56670;SDS011;42545;50.054;8.306;2023-06-24T11:09:40;3.42;;;2.60;;
56670;SDS011;42545;50.054;8.306;2023-06-24T11:12:08;3.10;;;2.80;;
56670;SDS011;42545;50.054;8.306;2023-06-24T11:14:37;3.33;;;3.03;;
56670;SDS011;42545;50.054;8.306;2023-06-24T11:17:04;3.38;;;3.00;;
56670;SDS011;42545;50.054;8.306;2023-06-24T11:19:31;3.22;;;2.60;;
56670;SDS011;42545;50.054;8.306;2023-06-24T11:22:01;4.22;;;3.20;;
56670;SDS011;42545;50.054;8.306;2023-06-24T11:24:29;3.17;;;2.70;;
56670;SDS011;42545;50.054;8.306;2023-06-24T11:26:56;4.10;;;3.08;;
56670;SDS011;42545;50.054;8.306;2023-06-24T11:29:23;3.10;;;2.70;;
56670;SDS011;42545;50.054;8.306;2023-06-24T11:31:50;2.53;;;2.33;;
56670;SDS011;42545;50.054;8.306;2023-06-24T11:34:17;3.63;;;2.85;;
56670;SDS011;42545;50.054;8.306;2023-06-24T11:36:44;2.50;;;2.30;;
56670;SDS011;42545;50.054;8.306;2023-06-24T11:39:21;2.60;;;2.40;;
56670;SDS011;42545;50.054;8.306;2023-06-24T11:41:50;2.33;;;2.13;;
56670;SDS011;42545;50.054;8.306;2023-06-24T11:44:18;3.13;;;2.38;;
56670;SDS011;42545;50.054;8.306;2023-06-24T11:46:45;3.22;;;2.40;;
56670;SDS011;42545;50.054;8.306;2023-06-24T11:49:13;2.50;;;2.10;;
56670;SDS011;42545;50.054;8.306;2023-06-24T11:51:46;2.40;;;2.10;;
56670;SDS011;42545;50.054;8.306;2023-06-24T11:54:15;2.60;;;2.40;;
56670;SDS011;42545;50.054;8.306;2023-06-24T11:56:43;2.88;;;2.42;;
56670;SDS011;42545;50.054;8.306;2023-06-24T11:59:19;2.65;;;2.42;;
56670;SDS011;42545;50.054;8.306;2023-06-24T12:01:51;2.40;;;2.20;;
56670;SDS011;42545;50.054;8.306;2023-06-24T12:04:20;2.35;;;2.15;;
56670;SDS011;42545;50.054;8.306;2023-06-24T12:06:48;3.75;;;2.83;;
56670;SDS011;42545;50.054;8.306;2023-06-24T12:09:14;2.85;;;2.60;;
56670;SDS011;42545;50.054;8.306;2023-06-24T12:11:42;3.25;;;2.95;;
56670;SDS011;42545;50.054;8.306;2023-06-24T12:14:08;3.10;;;2.80;;
56670;SDS011;42545;50.054;8.306;2023-06-24T12:16:37;3.42;;;2.88;;
56670;SDS011;42545;50.054;8.306;2023-06-24T12:19:05;3.33;;;2.63;;
56670;SDS011;42545;50.054;8.306;2023-06-24T12:21:31;3.50;;;2.70;;
56670;SDS011;42545;50.054;8.306;2023-06-24T12:23:58;4.18;;;3.08;;
56670;SDS011;42545;50.054;8.306;2023-06-24T12:26:25;3.08;;;2.67;;
56670;SDS011;42545;50.054;8.306;2023-06-24T12:28:53;2.95;;;2.65;;
56670;SDS011;42545;50.054;8.306;2023-06-24T12:31:21;3.25;;;2.70;;
56670;SDS011;42545;50.054;8.306;2023-06-24T12:33:49;4.30;;;3.25;;
56670;SDS011;42545;50.054;8.306;2023-06-24T12:36:16;3.05;;;2.80;;
56670;SDS011;42545;50.054;8.306;2023-06-24T12:38:43;3.17;;;2.88;;
56670;SDS011;42545;50.054;8.306;2023-06-24T12:41:09;2.60;;;2.22;;
56670;SDS011;42545;50.054;8.306;2023-06-24T12:43:36;4.22;;;3.33;;
56670;SDS011;42545;50.054;8.306;2023-06-24T12:46:02;3.65;;;3.20;;
56670;SDS011;42545;50.054;8.306;2023-06-24T12:48:29;3.85;;;3.35;;
56670;SDS011;42545;50.054;8.306;2023-06-24T12:50:57;3.30;;;3.00;;
56670;SDS011;42545;50.054;8.306;2023-06-24T12:53:24;3.58;;;3.00;;
56670;SDS011;42545;50.054;8.306;2023-06-24T12:55:50;3.15;;;2.70;;
56670;SDS011;42545;50.054;8.306;2023-06-24T12:58:18;2.30;;;2.10;;
56670;SDS011;42545;50.054;8.306;2023-06-24T13:00:46;2.38;;;2.17;;
56670;SDS011;42545;50.054;8.306;2023-06-24T13:03:12;2.58;;;2.38;;
56670;SDS011;42545;50.054;8.306;2023-06-24T13:05:39;2.83;;;2.28;;
56670;SDS011;42545;50.054;8.306;2023-06-24T13:08:07;2.25;;;2.05;;
56670;SDS011;42545;50.054;8.306;2023-06-24T13:10:36;2.97;;;2.67;;
56670;SDS011;42545;50.054;8.306;2023-06-24T13:13:03;2.22;;;2.03;;
56670;SDS011;42545;50.054;8.306;2023-06-24T13:15:29;3.22;;;2.40;;
56670;SDS011;42545;50.054;8.306;2023-06-24T13:17:56;2.30;;;2.10;;
56670;SDS011;42545;50.054;8.306;2023-06-24T13:20:23;2.42;;;1.90;;
56670;SDS011;42545;50.054;8.306;2023-06-24T13:22:49;2.67;;;2.47;;
56670;SDS011;42545;50.054;8.306;2023-06-24T13:25:17;2.25;;;2.05;;
56670;SDS011;42545;50.054;8.306;2023-06-24T13:27:44;2.58;;;2.28;;
56670;SDS011;42545;50.054;8.306;2023-06-24T13:30:11;2.45;;;2.25;;
56670;SDS011;42545;50.054;8.306;2023-06-24T13:32:40;2.42;;;2.22;;
56670;SDS011;42545;50.054;8.306;2023-06-24T13:35:07;2.17;;;1.77;;
56670;SDS011;42545;50.054;8.306;2023-06-24T13:37:34;2.00;;;1.80;;
56670;SDS011;42545;50.054;8.306;2023-06-24T13:40:01;1.80;;;1.70;;
56670;SDS011;42545;50.054;8.306;2023-06-24T13:42:29;2.88;;;1.98;;
56670;SDS011;42545;50.054;8.306;2023-06-24T13:44:56;2.67;;;2.47;;
56670;SDS011;42545;50.054;8.306;2023-06-24T13:47:23;1.88;;;1.73;;
56670;SDS011;42545;50.054;8.306;2023-06-24T13:49:49;2.10;;;1.90;;
56670;SDS011;42545;50.054;8.306;2023-06-24T13:52:16;1.98;;;1.77;;
56670;SDS011;42545;50.054;8.306;2023-06-24T13:54:43;1.95;;;1.77;;
56670;SDS011;42545;50.054;8.306;2023-06-24T13:57:10;2.42;;;2.20;;
56670;SDS011;42545;50.054;8.306;2023-06-24T13:59:38;3.08;;;2.50;;
56670;SDS011;42545;50.054;8.306;2023-06-24T14:02:05;3.08;;;2.38;;
56670;SDS011;42545;50.054;8.306;2023-06-24T14:04:33;2.33;;;2.13;;
56670;SDS011;42545;50.054;8.306;2023-06-24T14:06:59;2.53;;;2.33;;
56670;SDS011;42545;50.054;8.306;2023-06-24T14:09:27;3.22;;;2.15;;
56670;SDS011;42545;50.054;8.306;2023-06-24T14:11:53;2.95;;;2.45;;
56670;SDS011;42545;50.054;8.306;2023-06-24T14:14:20;2.40;;;2.20;;
56670;SDS011;42545;50.054;8.306;2023-06-24T14:16:49;2.30;;;2.10;;
56670;SDS011;42545;50.054;8.306;2023-06-24T14:19:15;2.60;;;2.40;;
56670;SDS011;42545;50.054;8.306;2023-06-24T14:21:42;2.50;;;2.30;;
56670;SDS011;42545;50.054;8.306;2023-06-24T14:24:08;2.45;;;2.25;;
56670;SDS011;42545;50.054;8.306;2023-06-24T14:26:36;2.30;;;2.10;;
56670;SDS011;42545;50.054;8.306;2023-06-24T14:29:03;2.15;;;1.95;;
56670;SDS011;42545;50.054;8.306;2023-06-24T14:31:30;3.30;;;3.00;;
56670;SDS011;42545;50.054;8.306;2023-06-24T14:33:57;3.45;;;2.92;;
56670;SDS011;42545;50.054;8.306;2023-06-24T14:36:24;2.97;;;2.67;;
56670;SDS011;42545;50.054;8.306;2023-06-24T14:38:51;2.85;;;2.55;;
56670;SDS011;42545;50.054;8.306;2023-06-24T14:41:18;3.20;;;2.90;;
56670;SDS011;42545;50.054;8.306;2023-06-24T14:43:44;2.80;;;2.60;;
56670;SDS011;42545;50.054;8.306;2023-06-24T14:46:11;2.67;;;2.42;;
56670;SDS011;42545;50.054;8.306;2023-06-24T14:48:37;2.63;;;2.42;;
56670;SDS011;42545;50.054;8.306;2023-06-24T14:51:05;3.20;;;2.70;;
56670;SDS011;42545;50.054;8.306;2023-06-24T14:53:32;2.95;;;2.60;;
56670;SDS011;42545;50.054;8.306;2023-06-24T14:55:59;3.10;;;2.53;;
56670;SDS011;42545;50.054;8.306;2023-06-24T14:58:26;3.10;;;2.53;;
56670;SDS011;42545;50.054;8.306;2023-06-24T15:00:52;3.72;;;2.90;;
56670;SDS011;42545;50.054;8.306;2023-06-24T15:03:21;2.83;;;2.50;;
56670;SDS011;42545;50.054;8.306;2023-06-24T15:05:48;2.90;;;2.65;;
56670;SDS011;42545;50.054;8.306;2023-06-24T15:08:16;3.35;;;2.55;;